createdAt,value
2023-03-21T00:02:00.872Z,91.15
2023-03-21T00:04:33.141Z,104.47
2023-03-21T00:07:05.501Z,94.35
2023-03-21T00:09:32.670Z,88.78
2023-03-21T00:12:01.650Z,84.38
2023-03-21T00:14:30.782Z,89.82
2023-03-21T00:16:58.310Z,83.53
2023-03-21T00:19:26.565Z,89.43
2023-03-21T00:22:06.918Z,80.18
2023-03-21T00:24:36.804Z,80.93
2023-03-21T00:27:26.906Z,75.35
2023-03-21T00:29:51.431Z,68.40
2023-03-21T00:32:20.970Z,78.97
2023-03-21T00:35:01.379Z,69.70
2023-03-21T00:37:34.188Z,70.90
2023-03-21T00:40:01.697Z,64.80
2023-03-21T00:42:30.707Z,70.10
2023-03-21T00:44:57.812Z,64.80
2023-03-21T00:47:25.985Z,74.78
2023-03-21T00:49:54.429Z,66.57
2023-03-21T00:52:37.971Z,59.08
2023-03-21T00:55:07.953Z,58.42
2023-03-21T00:57:39.381Z,58.90
2023-03-21T01:00:12.445Z,60.40
2023-03-21T01:03:02.648Z,58.83
2023-03-21T01:06:04.921Z,62.00
2023-03-21T01:08:50.631Z,54.25
2023-03-21T01:11:22.591Z,60.08
2023-03-21T01:13:56.123Z,59.72
2023-03-21T01:16:27.495Z,54.97
2023-03-21T01:18:55.022Z,55.80
2023-03-21T01:21:22.329Z,53.05
2023-03-21T01:23:49.850Z,48.95
2023-03-21T01:26:17.194Z,59.60
2023-03-21T01:28:45.654Z,54.03
2023-03-21T01:31:15.265Z,53.58
2023-03-21T01:33:43.964Z,55.45
2023-03-21T01:36:23.520Z,58.78
2023-03-21T01:38:53.948Z,53.97
2023-03-21T01:41:43.103Z,52.17
2023-03-21T01:44:29.850Z,59.00
2023-03-21T01:47:10.908Z,55.75
2023-03-21T01:50:01.802Z,67.15
2023-03-21T01:52:50.004Z,58.85
2023-03-21T01:55:24.954Z,51.72
2023-03-21T01:58:05.788Z,51.65
2023-03-21T02:00:47.533Z,56.00
2023-03-21T02:03:38.362Z,54.55
2023-03-21T02:06:54.518Z,54.67
2023-03-21T02:09:33.575Z,60.20
2023-03-21T02:12:02.061Z,62.20
2023-03-21T02:14:34.552Z,60.28
2023-03-21T02:17:20.719Z,57.95
2023-03-21T02:20:15.328Z,60.90
2023-03-21T02:23:09.683Z,60.03
2023-03-21T02:26:14.017Z,57.45
2023-03-21T02:28:57.640Z,56.97
2023-03-21T02:31:28.688Z,62.25
2023-03-21T02:34:27.662Z,62.78
2023-03-21T02:37:02.235Z,56.17
2023-03-21T02:39:52.558Z,61.40
2023-03-21T02:42:37.513Z,59.47
2023-03-21T02:45:26.886Z,61.55
2023-03-21T02:48:10.070Z,61.88
2023-03-21T02:50:52.695Z,60.83
2023-03-21T02:53:23.317Z,64.07
2023-03-21T02:55:53.488Z,63.10
2023-03-21T02:58:24.488Z,61.58
2023-03-21T03:00:56.671Z,61.47
2023-03-21T03:03:39.444Z,61.70
2023-03-21T03:06:18.832Z,63.50
2023-03-21T03:09:14.112Z,64.40
2023-03-21T03:11:44.680Z,67.18
2023-03-21T03:14:59.906Z,67.60
2023-03-21T03:17:30.679Z,65.85
2023-03-21T03:20:16.658Z,59.80
2023-03-21T03:22:58.580Z,59.97
2023-03-21T03:26:04.339Z,62.85
2023-03-21T03:28:40.550Z,67.43
2023-03-21T03:31:16.796Z,61.80
2023-03-21T03:33:56.616Z,64.35
2023-03-21T03:36:32.455Z,63.75
2023-03-21T03:39:09.280Z,57.35
2023-03-21T03:42:10.027Z,58.15
2023-03-21T03:44:43.094Z,63.22
2023-03-21T03:47:29.902Z,59.17
2023-03-21T03:50:13.134Z,54.17
2023-03-21T03:52:55.856Z,61.55
2023-03-21T03:55:28.239Z,62.70
2023-03-21T03:58:01.969Z,53.40
2023-03-21T04:00:33.405Z,60.75
2023-03-21T04:03:00.948Z,61.13
2023-03-21T04:05:28.832Z,52.97
2023-03-21T04:07:57.089Z,57.83
2023-03-21T04:10:36.021Z,61.78
2023-03-21T04:13:03.370Z,61.53
2023-03-21T04:15:45.607Z,60.58
2023-03-21T04:18:16.219Z,56.28
2023-03-21T04:20:48.695Z,63.10
2023-03-21T04:23:16.280Z,62.70
2023-03-21T04:25:55.952Z,62.65
2023-03-21T04:28:27.279Z,65.07
2023-03-21T04:31:22.655Z,65.93
2023-03-21T04:33:56.034Z,64.18
2023-03-21T04:36:42.982Z,63.10
2023-03-21T04:39:13.392Z,71.60
2023-03-21T04:41:44.622Z,71.22
2023-03-21T04:44:14.491Z,79.22
2023-03-21T04:46:42.888Z,74.22
2023-03-21T04:49:11.845Z,76.47
2023-03-21T04:51:40.063Z,74.32
2023-03-21T04:56:42.823Z,78.20
2023-03-21T04:59:13.933Z,88.32
2023-03-21T05:01:43.650Z,88.07
2023-03-21T05:04:13.414Z,89.28
2023-03-21T05:06:42.691Z,95.25
2023-03-21T05:09:10.355Z,86.35
2023-03-21T05:11:41.048Z,92.57
2023-03-21T05:14:11.254Z,104.80
2023-03-21T05:16:45.064Z,94.18
2023-03-21T05:19:13.870Z,95.78
2023-03-21T05:21:43.427Z,98.43
2023-03-21T05:24:20.350Z,113.25
2023-03-21T05:26:52.503Z,102.07
2023-03-21T05:29:23.212Z,104.93
2023-03-21T05:32:00.225Z,119.05
2023-03-21T05:34:28.727Z,111.78
2023-03-21T05:36:56.682Z,120.25
2023-03-21T05:39:26.988Z,115.38
2023-03-21T05:42:04.328Z,118.80
2023-03-21T05:44:31.666Z,126.82
2023-03-21T05:47:01.236Z,118.25
2023-03-21T05:49:37.796Z,123.55
2023-03-21T05:52:05.940Z,122.85
2023-03-21T05:54:34.001Z,118.22
2023-03-21T05:57:02.495Z,118.10
2023-03-21T05:59:59.038Z,117.20
2023-03-21T06:02:28.109Z,118.43
2023-03-21T06:04:57.404Z,117.43
2023-03-21T06:07:24.876Z,129.80
2023-03-21T06:09:52.081Z,121.35
2023-03-21T06:12:19.759Z,126.30
2023-03-21T06:15:08.852Z,112.90
2023-03-21T06:17:59.481Z,116.93
2023-03-21T06:20:27.212Z,112.43
2023-03-21T06:23:02.282Z,95.78
2023-03-21T06:25:29.867Z,102.32
2023-03-21T06:27:57.588Z,90.40
2023-03-21T06:30:24.759Z,90.55
2023-03-21T06:33:24.743Z,84.25
2023-03-21T06:35:57.029Z,84.13
2023-03-21T06:40:53.701Z,86.07
2023-03-21T06:43:23.043Z,87.30
2023-03-21T06:45:51.044Z,76.93
2023-03-21T06:48:18.633Z,88.13
2023-03-21T06:50:53.404Z,66.20
2023-03-21T06:53:30.446Z,68.22
2023-03-21T06:56:23.782Z,66.07
2023-03-21T06:58:51.615Z,58.63
2023-03-21T07:01:38.928Z,67.78
2023-03-21T07:04:08.503Z,64.13
2023-03-21T07:06:37.298Z,61.08
2023-03-21T07:09:05.944Z,61.15
2023-03-21T07:11:36.136Z,63.20
2023-03-21T07:14:05.021Z,65.93
2023-03-21T07:16:32.898Z,54.28
2023-03-21T07:19:00.734Z,61.15
2023-03-21T07:21:28.233Z,60.88
2023-03-21T07:23:56.062Z,53.85
2023-03-21T07:26:23.229Z,58.97
2023-03-21T07:28:50.721Z,53.33
2023-03-21T07:31:18.032Z,48.33
2023-03-21T07:33:45.679Z,43.03
2023-03-21T07:36:15.528Z,47.47
2023-03-21T07:38:44.218Z,51.83
2023-03-21T07:41:11.784Z,41.90
2023-03-21T07:43:39.629Z,33.80
2023-03-21T07:46:10.292Z,38.53
2023-03-21T07:48:38.110Z,33.00
2023-03-21T07:51:07.059Z,32.22
2023-03-21T07:53:36.232Z,33.58
2023-03-21T07:56:04.136Z,28.30
2023-03-21T07:58:34.187Z,26.80
2023-03-21T08:01:02.328Z,29.55
2023-03-21T08:03:31.045Z,34.47
2023-03-21T08:06:01.275Z,27.52
2023-03-21T08:08:28.775Z,31.65
2023-03-21T08:10:55.977Z,34.08
2023-03-21T08:13:23.774Z,28.17
2023-03-21T08:15:50.930Z,25.73
2023-03-21T08:18:18.554Z,28.77
2023-03-21T08:20:45.719Z,21.10
2023-03-21T08:23:13.941Z,19.63
2023-03-21T08:25:41.140Z,23.20
2023-03-21T08:28:08.614Z,21.30
2023-03-21T08:30:38.133Z,17.65
2023-03-21T08:33:05.615Z,18.85
2023-03-21T08:35:32.933Z,23.02
2023-03-21T08:38:03.003Z,22.85
2023-03-21T08:40:30.342Z,26.80
2023-03-21T08:42:57.809Z,21.27
2023-03-21T08:45:26.993Z,20.20
2023-03-21T08:47:54.946Z,21.77
2023-03-21T08:50:25.050Z,24.73
2023-03-21T08:52:52.503Z,19.95
2023-03-21T08:55:20.123Z,21.90
2023-03-21T08:57:47.628Z,24.95
2023-03-21T09:00:17.873Z,26.45
2023-03-21T09:02:48.384Z,21.33
2023-03-21T09:05:16.916Z,22.55
2023-03-21T09:07:44.852Z,20.38
2023-03-21T09:10:22.387Z,18.98
2023-03-21T09:12:51.941Z,23.67
2023-03-21T09:15:22.021Z,21.15
2023-03-21T09:17:52.986Z,21.80
2023-03-21T09:20:30.755Z,17.75
2023-03-21T09:22:59.778Z,22.00
2023-03-21T09:25:35.232Z,17.33
2023-03-21T09:28:06.453Z,14.85
2023-03-21T09:30:35.789Z,19.27
2023-03-21T09:33:09.686Z,26.00
2023-03-21T09:35:37.720Z,17.08
2023-03-21T09:38:05.899Z,20.40
2023-03-21T09:40:52.666Z,18.95
2023-03-21T09:43:49.453Z,19.08
2023-03-21T09:46:31.757Z,18.50
2023-03-21T09:51:42.950Z,47.63
2023-03-21T09:54:39.414Z,100.28
2023-03-21T09:57:33.045Z,27.85
2023-03-21T10:00:09.441Z,22.10
2023-03-21T10:02:49.634Z,19.23
2023-03-21T10:05:32.071Z,20.95
2023-03-21T10:08:04.652Z,22.70
2023-03-21T10:10:38.016Z,21.77
2023-03-21T10:13:15.703Z,18.60
2023-03-21T10:15:43.307Z,20.85
2023-03-21T10:18:18.728Z,21.17
2023-03-21T10:20:46.862Z,22.95
2023-03-21T10:23:16.854Z,24.30
2023-03-21T10:25:52.814Z,20.80
2023-03-21T10:28:24.135Z,19.35
2023-03-21T10:30:58.821Z,19.63
2023-03-21T10:33:47.857Z,24.33
2023-03-21T10:36:20.531Z,24.75
2023-03-21T10:38:52.683Z,17.92
2023-03-21T10:44:08.711Z,27.52
2023-03-21T10:46:36.526Z,22.55
2023-03-21T10:49:06.996Z,20.33
2023-03-21T10:51:37.845Z,33.78
2023-03-21T10:54:13.870Z,23.30
2023-03-21T10:57:06.214Z,32.97
2023-03-21T10:59:47.253Z,37.83
2023-03-21T11:02:26.485Z,22.30
2023-03-21T11:04:55.720Z,43.70
2023-03-21T11:07:26.007Z,18.98
2023-03-21T11:09:59.278Z,26.38
2023-03-21T11:12:39.281Z,23.42
2023-03-21T11:15:28.504Z,21.27
2023-03-21T11:17:56.458Z,18.35
2023-03-21T11:20:23.626Z,17.55
2023-03-21T11:22:55.942Z,21.08
2023-03-21T11:25:36.333Z,432.70
2023-03-21T11:28:16.483Z,20.13
2023-03-21T11:30:52.633Z,21.63
2023-03-21T11:33:22.107Z,26.15
2023-03-21T11:36:21.767Z,27.95
2023-03-21T11:39:03.831Z,22.33
2023-03-21T11:41:33.601Z,22.52
2023-03-21T11:44:02.868Z,23.60
2023-03-21T11:46:32.084Z,23.25
2023-03-21T11:49:00.576Z,19.73
2023-03-21T11:51:56.667Z,22.52
2023-03-21T11:54:41.824Z,29.15
2023-03-21T11:57:37.204Z,21.30
2023-03-21T12:00:43.966Z,26.83
2023-03-21T12:03:28.906Z,22.50
2023-03-21T12:06:02.384Z,20.63
2023-03-21T12:08:53.576Z,21.90
2023-03-21T12:11:45.730Z,25.75
2023-03-21T12:14:22.655Z,20.40
2023-03-21T12:17:00.870Z,19.52
2023-03-21T12:19:52.138Z,29.10
2023-03-21T12:22:45.537Z,22.95
2023-03-21T12:25:27.844Z,19.67
2023-03-21T12:28:15.281Z,24.05
2023-03-21T12:31:04.395Z,22.05
2023-03-21T12:33:48.782Z,22.50
2023-03-21T12:36:24.747Z,32.42
2023-03-21T12:39:13.102Z,34.60
2023-03-21T12:41:57.093Z,25.27
2023-03-21T12:44:29.166Z,27.60
2023-03-21T12:47:08.907Z,25.67
2023-03-21T12:49:46.292Z,22.65
2023-03-21T12:52:21.752Z,21.60
2023-03-21T12:54:53.513Z,24.85
2023-03-21T12:57:30.647Z,25.63
2023-03-21T13:00:13.238Z,20.52
2023-03-21T13:05:28.003Z,22.60
2023-03-21T13:07:59.450Z,20.67
2023-03-21T13:10:27.283Z,25.38
2023-03-21T13:13:09.984Z,21.05
2023-03-21T13:15:57.521Z,18.20
2023-03-21T13:18:30.688Z,21.45
2023-03-21T13:21:30.143Z,18.35
2023-03-21T13:24:04.461Z,20.15
2023-03-21T13:26:41.153Z,18.52
2023-03-21T13:29:17.001Z,18.15
2023-03-21T13:31:52.163Z,31.90
2023-03-21T13:34:24.099Z,17.30
2023-03-21T13:36:52.867Z,16.52
2023-03-21T13:39:26.552Z,22.13
2023-03-21T13:41:54.907Z,21.67
2023-03-21T13:44:42.032Z,17.52
2023-03-21T13:47:33.925Z,19.42
2023-03-21T13:50:22.856Z,18.07
2023-03-21T13:53:20.949Z,22.27
2023-03-21T13:55:59.893Z,23.55
2023-03-21T13:58:50.373Z,23.52
2023-03-21T14:01:28.355Z,19.70
2023-03-21T14:04:13.428Z,15.93
2023-03-21T14:06:59.164Z,18.88
2023-03-21T14:09:32.905Z,26.73
2023-03-21T14:12:07.545Z,17.10
2023-03-21T14:15:06.835Z,15.90
2023-03-21T14:17:37.529Z,19.67
2023-03-21T14:20:27.284Z,20.45
2023-03-21T14:22:55.193Z,58.55
2023-03-21T14:25:29.179Z,19.08
2023-03-21T14:28:01.261Z,20.63
2023-03-21T14:30:32.367Z,20.13
2023-03-21T14:33:03.510Z,15.43
2023-03-21T14:35:32.488Z,20.52
2023-03-21T14:38:07.355Z,21.60
2023-03-21T14:40:35.715Z,17.83
2023-03-21T14:43:06.759Z,16.52
2023-03-21T14:45:37.124Z,17.23
2023-03-21T14:48:18.814Z,18.15
2023-03-21T14:50:48.341Z,17.23
2023-03-21T14:53:39.969Z,20.42
2023-03-21T14:56:10.568Z,17.13
2023-03-21T14:58:40.369Z,17.90
2023-03-21T15:01:16.185Z,16.75
2023-03-21T15:03:47.707Z,15.27
2023-03-21T15:06:15.179Z,17.40
2023-03-21T15:08:58.059Z,15.55
2023-03-21T15:11:49.052Z,23.25
2023-03-21T15:14:18.269Z,18.83
2023-03-21T15:16:46.134Z,20.90
2023-03-21T15:19:19.602Z,24.08
2023-03-21T15:21:51.910Z,15.13
2023-03-21T15:24:28.008Z,12.48
2023-03-21T15:27:06.256Z,11.82
2023-03-21T15:29:36.933Z,10.23
2023-03-21T15:32:13.778Z,9.40
2023-03-21T15:34:41.333Z,11.15
2023-03-21T15:37:15.975Z,17.38
2023-03-21T15:39:43.613Z,14.13
2023-03-21T15:42:43.672Z,12.32
2023-03-21T15:45:25.040Z,19.25
2023-03-21T15:47:55.061Z,12.15
2023-03-21T15:50:25.462Z,20.33
2023-03-21T15:52:54.183Z,8.75
2023-03-21T15:55:30.594Z,12.50
2023-03-21T15:58:07.748Z,12.52
2023-03-21T16:00:40.036Z,12.40
2023-03-21T16:03:20.926Z,75.10
2023-03-21T16:06:31.402Z,19.83
2023-03-21T16:09:12.171Z,109.75
2023-03-21T16:11:49.024Z,12.65
2023-03-21T16:14:17.558Z,22.00
2023-03-21T16:16:45.948Z,14.73
2023-03-21T16:19:14.466Z,84.15
2023-03-21T16:21:42.156Z,20.35
2023-03-21T16:24:11.728Z,23.65
2023-03-21T16:26:47.987Z,28.85
2023-03-21T16:29:16.222Z,99.22
2023-03-21T16:31:43.803Z,140.23
2023-03-21T16:34:12.585Z,132.80
2023-03-21T16:36:43.336Z,89.20
2023-03-21T16:39:37.470Z,143.38
2023-03-21T16:42:04.688Z,40.25
2023-03-21T16:44:33.752Z,44.78
2023-03-21T16:47:02.396Z,41.42
2023-03-21T16:49:30.328Z,67.43
2023-03-21T16:51:57.540Z,48.20
2023-03-21T16:54:25.764Z,45.13
2023-03-21T16:56:55.762Z,23.50
2023-03-21T16:59:23.546Z,24.23
2023-03-21T17:01:51.264Z,18.38
2023-03-21T17:04:18.897Z,19.38
2023-03-21T17:06:49.379Z,22.75
2023-03-21T17:09:19.840Z,18.73
2023-03-21T17:11:47.296Z,22.27
2023-03-21T17:14:18.803Z,21.08
2023-03-21T17:16:46.500Z,35.45
2023-03-21T17:19:15.615Z,43.75
2023-03-21T17:21:43.129Z,45.83
2023-03-21T17:24:10.959Z,42.78
2023-03-21T17:26:38.428Z,52.70
2023-03-21T17:29:07.334Z,36.70
2023-03-21T17:31:38.097Z,38.30
2023-03-21T17:34:05.735Z,37.42
2023-03-21T17:36:38.899Z,38.47
2023-03-21T17:39:11.357Z,44.22
2023-03-21T17:41:38.734Z,35.40
2023-03-21T17:44:06.411Z,48.80
2023-03-21T17:46:37.459Z,52.85
2023-03-21T17:49:06.221Z,46.60
2023-03-21T17:51:33.707Z,46.40
2023-03-21T17:54:01.253Z,51.38
2023-03-21T17:56:31.169Z,49.00
2023-03-21T17:59:05.066Z,46.67
2023-03-21T18:01:32.349Z,45.28
2023-03-21T18:04:02.937Z,54.38
2023-03-21T18:06:30.963Z,64.63
2023-03-21T18:08:59.691Z,65.72
2023-03-21T18:11:27.895Z,62.97
2023-03-21T18:14:06.801Z,84.47
2023-03-21T18:16:41.455Z,58.00
2023-03-21T18:19:11.194Z,70.55
2023-03-21T18:21:40.664Z,62.47
2023-03-21T18:24:08.790Z,60.35
2023-03-21T18:26:36.338Z,72.55
2023-03-21T18:30:00.363Z,66.30
2023-03-21T18:32:05.141Z,84.15
2023-03-21T18:34:34.891Z,38.65
2023-03-21T18:37:04.136Z,56.05
2023-03-21T18:39:33.263Z,54.47
2023-03-21T18:42:02.477Z,41.95
2023-03-21T18:44:38.634Z,49.58
2023-03-21T18:47:07.074Z,61.65
2023-03-21T18:50:12.120Z,53.78
2023-03-21T18:52:22.617Z,55.53
2023-03-21T18:54:50.448Z,59.20
2023-03-21T18:57:35.880Z,57.03
2023-03-21T19:00:12.554Z,57.40
2023-03-21T19:02:46.297Z,45.88
2023-03-21T19:05:17.698Z,55.75
2023-03-21T19:07:45.708Z,57.80
2023-03-21T19:10:19.623Z,83.78
2023-03-21T19:12:52.392Z,55.00
2023-03-21T19:15:21.620Z,46.47
2023-03-21T19:20:38.261Z,58.03
2023-03-21T19:23:08.184Z,71.53
2023-03-21T19:25:36.988Z,38.17
2023-03-21T19:28:04.468Z,50.50
2023-03-21T19:30:31.937Z,44.80
2023-03-21T19:32:59.256Z,47.15
2023-03-21T19:35:28.249Z,48.13
2023-03-21T19:37:55.804Z,55.58
2023-03-21T19:40:23.853Z,48.53
2023-03-21T19:42:51.376Z,58.20
2023-03-21T19:45:19.094Z,53.22
2023-03-21T19:47:46.520Z,67.65
2023-03-21T19:53:01.341Z,65.47
2023-03-21T19:55:29.203Z,54.42
2023-03-21T19:57:56.529Z,56.65
2023-03-21T20:00:24.107Z,67.45
2023-03-21T20:02:51.779Z,54.85
2023-03-21T20:05:22.405Z,54.00
2023-03-21T20:07:50.069Z,56.85
2023-03-21T20:10:17.895Z,54.78
2023-03-21T20:12:46.099Z,58.95
2023-03-21T20:15:18.287Z,57.25
2023-03-21T20:17:48.157Z,60.97
2023-03-21T20:20:17.807Z,71.28
2023-03-21T20:23:07.837Z,56.28
2023-03-21T20:25:39.979Z,59.92
2023-03-21T20:28:20.236Z,91.88
2023-03-21T20:30:54.518Z,76.75
2023-03-21T20:33:21.761Z,89.70
2023-03-21T20:38:37.681Z,108.40
2023-03-21T20:41:06.580Z,101.30
2023-03-21T20:44:28.165Z,97.50
2023-03-21T20:46:22.012Z,77.97
2023-03-21T20:48:49.798Z,79.13
2023-03-21T20:52:27.470Z,97.82
2023-03-21T20:54:05.379Z,96.93
2023-03-21T20:56:33.182Z,89.00
2023-03-21T20:59:14.998Z,91.38
2023-03-21T21:01:43.196Z,102.57
2023-03-21T21:04:11.683Z,114.10
2023-03-21T21:06:39.246Z,103.50
2023-03-21T21:09:06.419Z,116.72
2023-03-21T21:14:21.373Z,106.13
2023-03-21T21:16:48.865Z,98.15
2023-03-21T21:19:18.797Z,109.70
2023-03-21T21:21:46.222Z,104.35
2023-03-21T21:24:14.707Z,98.05
2023-03-21T21:26:46.265Z,101.50
2023-03-21T21:29:16.760Z,95.65
2023-03-21T21:31:46.799Z,94.68
2023-03-21T21:34:15.717Z,103.63
2023-03-21T21:36:44.992Z,93.65
2023-03-21T21:39:16.055Z,101.45
2023-03-21T21:41:43.604Z,111.30
2023-03-21T21:44:11.347Z,102.80
2023-03-21T21:46:38.943Z,108.50
2023-03-21T21:49:06.764Z,104.70
2023-03-21T21:51:35.063Z,119.00
2023-03-21T21:54:04.364Z,133.23
2023-03-21T21:56:38.499Z,124.57
2023-03-21T21:59:05.860Z,121.80
2023-03-21T22:01:38.591Z,108.82
2023-03-21T22:04:11.088Z,120.00
2023-03-21T22:06:38.547Z,109.78
2023-03-21T22:09:06.924Z,113.32
2023-03-21T22:11:34.571Z,115.93
2023-03-21T22:14:02.184Z,120.65
2023-03-21T22:16:29.812Z,126.00
2023-03-21T22:18:57.128Z,114.03
2023-03-21T22:21:24.580Z,126.35
2023-03-21T22:23:51.773Z,120.55
2023-03-21T22:26:19.410Z,133.20
2023-03-21T22:28:46.637Z,145.15
2023-03-21T22:31:16.299Z,144.48
2023-03-21T22:33:43.988Z,148.88
2023-03-21T22:36:11.958Z,146.23
2023-03-21T22:38:41.783Z,126.07
2023-03-21T22:41:09.227Z,113.93
2023-03-21T22:43:36.426Z,119.57
2023-03-21T22:46:05.472Z,108.85
2023-03-21T22:48:33.649Z,119.70
2023-03-21T22:51:01.380Z,116.82
2023-03-21T22:53:29.042Z,100.40
2023-03-21T22:55:56.718Z,109.43
2023-03-21T22:58:24.238Z,108.38
2023-03-21T23:00:52.050Z,123.25
2023-03-21T23:03:19.368Z,101.88
2023-03-21T23:05:46.998Z,112.75
2023-03-21T23:08:14.278Z,105.32
2023-03-21T23:10:43.763Z,113.82
2023-03-21T23:13:11.306Z,99.45
2023-03-21T23:15:39.809Z,104.07
2023-03-21T23:18:07.172Z,101.93
2023-03-21T23:20:34.748Z,100.95
2023-03-21T23:23:02.823Z,103.38
2023-03-21T23:25:30.431Z,114.80
2023-03-21T23:27:57.765Z,108.63
2023-03-21T23:30:25.863Z,109.40
2023-03-21T23:32:53.049Z,113.57
2023-03-21T23:35:20.607Z,123.40
2023-03-21T23:37:52.092Z,115.85
2023-03-21T23:40:20.434Z,115.30
2023-03-21T23:42:47.674Z,109.57
2023-03-21T23:45:15.585Z,110.85
2023-03-21T23:47:43.007Z,105.38
2023-03-21T23:50:11.183Z,106.70
2023-03-21T23:52:38.856Z,106.57
2023-03-21T23:55:06.644Z,120.38
2023-03-21T23:57:33.865Z,104.78
